sensor_id;sensor_type;location;lat;lon;timestamp;P1;durP1;ratioP1;P2;durP2;ratioP2
47778;SDS011;33538;48.432;11.350;2024-02-15T00:00:39;1.50;;;1.30;;
47778;SDS011;33538;48.432;11.350;2024-02-15T00:03:06;4.38;;;1.20;;
47778;SDS011;33538;48.432;11.350;2024-02-15T00:05:45;2.42;;;1.20;;
47778;SDS011;33538;48.432;11.350;2024-02-15T00:08:12;3.45;;;1.20;;
47778;SDS011;33538;48.432;11.350;2024-02-15T00:10:38;3.47;;;1.60;;
47778;SDS011;33538;48.432;11.350;2024-02-15T00:13:05;2.00;;;1.23;;
47778;SDS011;33538;48.432;11.350;2024-02-15T00:15:32;2.65;;;1.30;;
47778;SDS011;33538;48.432;11.350;2024-02-15T00:17:59;2.47;;;1.33;;
47778;SDS011;33538;48.432;11.350;2024-02-15T00:20:26;3.58;;;1.25;;
47778;SDS011;33538;48.432;11.350;2024-02-15T00:22:54;2.20;;;1.27;;
47778;SDS011;33538;48.432;11.350;2024-02-15T00:25:21;2.53;;;1.60;;
47778;SDS011;33538;48.432;11.350;2024-02-15T00:27:48;2.08;;;1.33;;
47778;SDS011;33538;48.432;11.350;2024-02-15T00:30:15;3.35;;;1.45;;
47778;SDS011;33538;48.432;11.350;2024-02-15T00:32:42;2.08;;;1.30;;
47778;SDS011;33538;48.432;11.350;2024-02-15T00:35:10;1.77;;;1.25;;
47778;SDS011;33538;48.432;11.350;2024-02-15T00:37:38;3.05;;;1.48;;
47778;SDS011;33538;48.432;11.350;2024-02-15T00:40:08;1.85;;;1.42;;
47778;SDS011;33538;48.432;11.350;2024-02-15T00:42:35;2.05;;;1.42;;
47778;SDS011;33538;48.432;11.350;2024-02-15T00:45:02;2.05;;;1.45;;
47778;SDS011;33538;48.432;11.350;2024-02-15T00:47:30;2.95;;;1.42;;
47778;SDS011;33538;48.432;11.350;2024-02-15T00:49:56;2.00;;;1.50;;
47778;SDS011;33538;48.432;11.350;2024-02-15T00:52:23;1.90;;;1.20;;
47778;SDS011;33538;48.432;11.350;2024-02-15T00:54:50;1.75;;;1.30;;
47778;SDS011;33538;48.432;11.350;2024-02-15T00:57:18;3.42;;;1.42;;
47778;SDS011;33538;48.432;11.350;2024-02-15T00:59:45;1.75;;;1.00;;
47778;SDS011;33538;48.432;11.350;2024-02-15T01:02:12;2.30;;;1.10;;
47778;SDS011;33538;48.432;11.350;2024-02-15T01:04:39;5.30;;;1.50;;
47778;SDS011;33538;48.432;11.350;2024-02-15T01:07:06;2.45;;;1.20;;
47778;SDS011;33538;48.432;11.350;2024-02-15T01:09:33;1.60;;;1.17;;
47778;SDS011;33538;48.432;11.350;2024-02-15T01:12:00;3.10;;;1.50;;
47778;SDS011;33538;48.432;11.350;2024-02-15T01:14:28;3.88;;;1.70;;
47778;SDS011;33538;48.432;11.350;2024-02-15T01:16:55;2.30;;;1.75;;
47778;SDS011;33538;48.432;11.350;2024-02-15T01:19:22;1.90;;;1.25;;
47778;SDS011;33538;48.432;11.350;2024-02-15T01:21:49;2.72;;;1.50;;
47778;SDS011;33538;48.432;11.350;2024-02-15T01:24:16;2.28;;;1.55;;
47778;SDS011;33538;48.432;11.350;2024-02-15T01:26:42;3.97;;;1.42;;
47778;SDS011;33538;48.432;11.350;2024-02-15T01:29:09;2.00;;;1.30;;
47778;SDS011;33538;48.432;11.350;2024-02-15T01:31:38;5.03;;;1.60;;
47778;SDS011;33538;48.432;11.350;2024-02-15T01:34:04;1.52;;;1.20;;
47778;SDS011;33538;48.432;11.350;2024-02-15T01:36:31;1.58;;;1.25;;
47778;SDS011;33538;48.432;11.350;2024-02-15T01:38:58;1.95;;;1.30;;
47778;SDS011;33538;48.432;11.350;2024-02-15T01:41:25;3.13;;;1.48;;
47778;SDS011;33538;48.432;11.350;2024-02-15T01:43:52;10.27;;;1.65;;
47778;SDS011;33538;48.432;11.350;2024-02-15T01:46:19;2.33;;;1.58;;
47778;SDS011;33538;48.432;11.350;2024-02-15T01:48:48;4.60;;;1.30;;
47778;SDS011;33538;48.432;11.350;2024-02-15T01:51:15;2.35;;;1.30;;
47778;SDS011;33538;48.432;11.350;2024-02-15T01:53:43;2.85;;;1.17;;
47778;SDS011;33538;48.432;11.350;2024-02-15T01:56:11;2.88;;;1.25;;
47778;SDS011;33538;48.432;11.350;2024-02-15T01:58:40;3.22;;;1.60;;
47778;SDS011;33538;48.432;11.350;2024-02-15T02:01:09;2.10;;;1.13;;
47778;SDS011;33538;48.432;11.350;2024-02-15T02:03:37;2.38;;;1.17;;
47778;SDS011;33538;48.432;11.350;2024-02-15T02:06:07;1.40;;;1.20;;
47778;SDS011;33538;48.432;11.350;2024-02-15T02:08:34;2.92;;;1.40;;
47778;SDS011;33538;48.432;11.350;2024-02-15T02:11:01;3.33;;;1.10;;
47778;SDS011;33538;48.432;11.350;2024-02-15T02:13:29;2.75;;;1.20;;
47778;SDS011;33538;48.432;11.350;2024-02-15T02:15:57;1.40;;;0.90;;
47778;SDS011;33538;48.432;11.350;2024-02-15T02:18:23;2.05;;;1.20;;
47778;SDS011;33538;48.432;11.350;2024-02-15T02:20:51;1.52;;;1.27;;
47778;SDS011;33538;48.432;11.350;2024-02-15T02:23:19;2.65;;;1.40;;
47778;SDS011;33538;48.432;11.350;2024-02-15T02:25:51;2.20;;;1.35;;
47778;SDS011;33538;48.432;11.350;2024-02-15T02:28:20;5.22;;;1.05;;
47778;SDS011;33538;48.432;11.350;2024-02-15T02:30:47;2.00;;;1.20;;
47778;SDS011;33538;48.432;11.350;2024-02-15T02:33:14;1.77;;;1.02;;
47778;SDS011;33538;48.432;11.350;2024-02-15T02:35:41;2.55;;;1.30;;
47778;SDS011;33538;48.432;11.350;2024-02-15T02:38:08;2.30;;;1.23;;
47778;SDS011;33538;48.432;11.350;2024-02-15T02:43:26;1.45;;;1.35;;
47778;SDS011;33538;48.432;11.350;2024-02-15T02:45:53;2.20;;;1.20;;
47778;SDS011;33538;48.432;11.350;2024-02-15T02:48:20;2.10;;;1.48;;
47778;SDS011;33538;48.432;11.350;2024-02-15T02:50:47;1.65;;;1.30;;
47778;SDS011;33538;48.432;11.350;2024-02-15T02:53:14;1.95;;;0.90;;
47778;SDS011;33538;48.432;11.350;2024-02-15T02:55:41;3.60;;;1.55;;
47778;SDS011;33538;48.432;11.350;2024-02-15T02:58:09;2.42;;;1.38;;
47778;SDS011;33538;48.432;11.350;2024-02-15T03:00:37;3.35;;;1.60;;
47778;SDS011;33538;48.432;11.350;2024-02-15T03:03:04;2.80;;;1.45;;
47778;SDS011;33538;48.432;11.350;2024-02-15T03:05:31;1.52;;;1.33;;
47778;SDS011;33538;48.432;11.350;2024-02-15T03:07:58;1.77;;;1.05;;
47778;SDS011;33538;48.432;11.350;2024-02-15T03:10:25;1.83;;;1.15;;
47778;SDS011;33538;48.432;11.350;2024-02-15T03:12:52;1.38;;;1.05;;
47778;SDS011;33538;48.432;11.350;2024-02-15T03:15:20;2.22;;;1.23;;
47778;SDS011;33538;48.432;11.350;2024-02-15T03:17:47;1.55;;;1.20;;
47778;SDS011;33538;48.432;11.350;2024-02-15T03:20:15;2.60;;;1.52;;
47778;SDS011;33538;48.432;11.350;2024-02-15T03:22:42;3.83;;;1.38;;
47778;SDS011;33538;48.432;11.350;2024-02-15T03:25:09;2.72;;;1.33;;
47778;SDS011;33538;48.432;11.350;2024-02-15T03:27:36;2.08;;;1.30;;
47778;SDS011;33538;48.432;11.350;2024-02-15T03:30:03;2.03;;;1.33;;
47778;SDS011;33538;48.432;11.350;2024-02-15T03:32:32;2.55;;;1.58;;
47778;SDS011;33538;48.432;11.350;2024-02-15T03:34:59;2.47;;;1.60;;
47778;SDS011;33538;48.432;11.350;2024-02-15T03:37:26;2.65;;;1.40;;
47778;SDS011;33538;48.432;11.350;2024-02-15T03:39:53;2.85;;;1.40;;
47778;SDS011;33538;48.432;11.350;2024-02-15T03:42:20;2.13;;;1.45;;
47778;SDS011;33538;48.432;11.350;2024-02-15T03:44:47;2.00;;;1.25;;
47778;SDS011;33538;48.432;11.350;2024-02-15T03:47:14;3.30;;;1.42;;
47778;SDS011;33538;48.432;11.350;2024-02-15T03:49:42;3.70;;;1.55;;
47778;SDS011;33538;48.432;11.350;2024-02-15T03:52:09;2.63;;;1.60;;
47778;SDS011;33538;48.432;11.350;2024-02-15T03:54:36;2.20;;;1.13;;
47778;SDS011;33538;48.432;11.350;2024-02-15T03:57:03;2.00;;;1.17;;
47778;SDS011;33538;48.432;11.350;2024-02-15T03:59:30;2.05;;;1.40;;
47778;SDS011;33538;48.432;11.350;2024-02-15T04:01:57;2.20;;;1.40;;
47778;SDS011;33538;48.432;11.350;2024-02-15T04:04:24;2.35;;;1.45;;
47778;SDS011;33538;48.432;11.350;2024-02-15T04:06:53;1.70;;;1.40;;
47778;SDS011;33538;48.432;11.350;2024-02-15T04:09:20;2.30;;;1.20;;
47778;SDS011;33538;48.432;11.350;2024-02-15T04:11:47;1.38;;;1.13;;
47778;SDS011;33538;48.432;11.350;2024-02-15T04:14:14;2.13;;;1.50;;
47778;SDS011;33538;48.432;11.350;2024-02-15T04:16:41;1.83;;;1.45;;
47778;SDS011;33538;48.432;11.350;2024-02-15T04:19:08;3.28;;;1.88;;
47778;SDS011;33538;48.432;11.350;2024-02-15T04:21:35;2.80;;;1.45;;
47778;SDS011;33538;48.432;11.350;2024-02-15T04:24:03;3.13;;;1.70;;
47778;SDS011;33538;48.432;11.350;2024-02-15T04:26:30;2.22;;;1.60;;
47778;SDS011;33538;48.432;11.350;2024-02-15T04:28:57;3.47;;;1.70;;
47778;SDS011;33538;48.432;11.350;2024-02-15T04:31:24;2.63;;;1.70;;
47778;SDS011;33538;48.432;11.350;2024-02-15T04:33:52;2.00;;;1.50;;
47778;SDS011;33538;48.432;11.350;2024-02-15T04:36:19;1.88;;;1.38;;
47778;SDS011;33538;48.432;11.350;2024-02-15T04:38:47;1.48;;;1.00;;
47778;SDS011;33538;48.432;11.350;2024-02-15T04:41:15;2.05;;;1.30;;
47778;SDS011;33538;48.432;11.350;2024-02-15T04:43:42;2.70;;;1.50;;
47778;SDS011;33538;48.432;11.350;2024-02-15T04:46:09;2.38;;;1.48;;
47778;SDS011;33538;48.432;11.350;2024-02-15T04:48:35;2.65;;;1.40;;
47778;SDS011;33538;48.432;11.350;2024-02-15T04:51:02;4.93;;;1.38;;
47778;SDS011;33538;48.432;11.350;2024-02-15T04:53:29;1.92;;;1.42;;
47778;SDS011;33538;48.432;11.350;2024-02-15T04:55:56;2.10;;;1.17;;
47778;SDS011;33538;48.432;11.350;2024-02-15T04:58:24;2.10;;;1.30;;
47778;SDS011;33538;48.432;11.350;2024-02-15T05:00:51;4.93;;;2.60;;
47778;SDS011;33538;48.432;11.350;2024-02-15T05:03:18;3.45;;;1.95;;
47778;SDS011;33538;48.432;11.350;2024-02-15T05:05:45;3.78;;;2.13;;
47778;SDS011;33538;48.432;11.350;2024-02-15T05:08:11;4.05;;;2.25;;
47778;SDS011;33538;48.432;11.350;2024-02-15T05:10:38;2.53;;;1.65;;
47778;SDS011;33538;48.432;11.350;2024-02-15T05:13:05;4.45;;;2.15;;
47778;SDS011;33538;48.432;11.350;2024-02-15T05:15:33;2.85;;;2.40;;
47778;SDS011;33538;48.432;11.350;2024-02-15T05:18:00;3.88;;;1.90;;
47778;SDS011;33538;48.432;11.350;2024-02-15T05:20:27;2.30;;;1.35;;
47778;SDS011;33538;48.432;11.350;2024-02-15T05:22:54;2.33;;;1.63;;
47778;SDS011;33538;48.432;11.350;2024-02-15T05:25:21;3.05;;;1.48;;
47778;SDS011;33538;48.432;11.350;2024-02-15T05:27:48;3.25;;;1.77;;
47778;SDS011;33538;48.432;11.350;2024-02-15T05:30:14;4.47;;;2.40;;
47778;SDS011;33538;48.432;11.350;2024-02-15T05:32:43;4.60;;;2.63;;
47778;SDS011;33538;48.432;11.350;2024-02-15T05:35:10;5.30;;;2.28;;
47778;SDS011;33538;48.432;11.350;2024-02-15T05:37:37;2.65;;;1.73;;
47778;SDS011;33538;48.432;11.350;2024-02-15T05:40:05;4.80;;;2.08;;
47778;SDS011;33538;48.432;11.350;2024-02-15T05:42:32;3.13;;;1.70;;
47778;SDS011;33538;48.432;11.350;2024-02-15T05:45:14;4.10;;;1.83;;
47778;SDS011;33538;48.432;11.350;2024-02-15T05:47:55;2.33;;;1.67;;
47778;SDS011;33538;48.432;11.350;2024-02-15T05:50:22;3.13;;;1.92;;
47778;SDS011;33538;48.432;11.350;2024-02-15T05:52:49;1.98;;;1.48;;
47778;SDS011;33538;48.432;11.350;2024-02-15T05:55:16;2.88;;;1.77;;
47778;SDS011;33538;48.432;11.350;2024-02-15T05:57:43;2.33;;;1.65;;
47778;SDS011;33538;48.432;11.350;2024-02-15T06:00:10;5.43;;;2.47;;
47778;SDS011;33538;48.432;11.350;2024-02-15T06:02:47;4.60;;;2.08;;
47778;SDS011;33538;48.432;11.350;2024-02-15T06:05:15;3.95;;;2.40;;
47778;SDS011;33538;48.432;11.350;2024-02-15T06:07:43;3.22;;;1.90;;
47778;SDS011;33538;48.432;11.350;2024-02-15T06:10:10;4.20;;;2.60;;
47778;SDS011;33538;48.432;11.350;2024-02-15T06:12:37;3.55;;;2.40;;
47778;SDS011;33538;48.432;11.350;2024-02-15T06:15:04;5.57;;;2.92;;
47778;SDS011;33538;48.432;11.350;2024-02-15T06:17:31;4.40;;;2.80;;
47778;SDS011;33538;48.432;11.350;2024-02-15T06:19:58;5.88;;;2.40;;
47778;SDS011;33538;48.432;11.350;2024-02-15T06:22:26;4.00;;;2.75;;
47778;SDS011;33538;48.432;11.350;2024-02-15T06:24:53;5.03;;;2.17;;
47778;SDS011;33538;48.432;11.350;2024-02-15T06:27:20;2.78;;;2.10;;
47778;SDS011;33538;48.432;11.350;2024-02-15T06:29:46;4.07;;;2.20;;
47778;SDS011;33538;48.432;11.350;2024-02-15T06:32:13;2.28;;;2.00;;
47778;SDS011;33538;48.432;11.350;2024-02-15T06:34:42;4.85;;;1.33;;
47778;SDS011;33538;48.432;11.350;2024-02-15T06:37:08;1.63;;;1.35;;
47778;SDS011;33538;48.432;11.350;2024-02-15T06:39:37;2.20;;;1.55;;
47778;SDS011;33538;48.432;11.350;2024-02-15T06:42:04;1.95;;;1.38;;
47778;SDS011;33538;48.432;11.350;2024-02-15T06:44:31;2.50;;;1.42;;
47778;SDS011;33538;48.432;11.350;2024-02-15T06:46:58;1.63;;;1.35;;
47778;SDS011;33538;48.432;11.350;2024-02-15T06:49:24;1.92;;;1.48;;
47778;SDS011;33538;48.432;11.350;2024-02-15T06:51:51;2.15;;;1.50;;
47778;SDS011;33538;48.432;11.350;2024-02-15T06:54:18;3.08;;;1.80;;
47778;SDS011;33538;48.432;11.350;2024-02-15T06:56:47;1.63;;;1.38;;
47778;SDS011;33538;48.432;11.350;2024-02-15T06:59:14;5.28;;;1.85;;
47778;SDS011;33538;48.432;11.350;2024-02-15T07:01:40;3.47;;;1.90;;
47778;SDS011;33538;48.432;11.350;2024-02-15T07:04:07;3.17;;;1.30;;
47778;SDS011;33538;48.432;11.350;2024-02-15T07:06:35;3.13;;;1.60;;
47778;SDS011;33538;48.432;11.350;2024-02-15T07:09:02;2.63;;;1.52;;
47778;SDS011;33538;48.432;11.350;2024-02-15T07:11:29;2.25;;;1.20;;
47778;SDS011;33538;48.432;11.350;2024-02-15T07:13:57;1.88;;;1.35;;
47778;SDS011;33538;48.432;11.350;2024-02-15T07:16:24;2.55;;;1.50;;
47778;SDS011;33538;48.432;11.350;2024-02-15T07:18:51;3.80;;;1.77;;
47778;SDS011;33538;48.432;11.350;2024-02-15T07:21:19;2.00;;;1.42;;
47778;SDS011;33538;48.432;11.350;2024-02-15T07:23:46;2.38;;;1.50;;
47778;SDS011;33538;48.432;11.350;2024-02-15T07:26:12;2.88;;;1.77;;
47778;SDS011;33538;48.432;11.350;2024-02-15T07:28:39;1.90;;;1.40;;
47778;SDS011;33538;48.432;11.350;2024-02-15T07:31:07;2.38;;;1.55;;
47778;SDS011;33538;48.432;11.350;2024-02-15T07:33:34;2.17;;;1.67;;
47778;SDS011;33538;48.432;11.350;2024-02-15T07:36:01;2.65;;;1.50;;
47778;SDS011;33538;48.432;11.350;2024-02-15T07:38:28;2.70;;;1.50;;
47778;SDS011;33538;48.432;11.350;2024-02-15T07:40:55;3.50;;;1.48;;
47778;SDS011;33538;48.432;11.350;2024-02-15T07:43:21;4.32;;;1.67;;
47778;SDS011;33538;48.432;11.350;2024-02-15T07:45:48;4.93;;;2.00;;
47778;SDS011;33538;48.432;11.350;2024-02-15T07:48:17;2.08;;;1.80;;
47778;SDS011;33538;48.432;11.350;2024-02-15T07:50:44;3.38;;;2.00;;
47778;SDS011;33538;48.432;11.350;2024-02-15T07:53:11;3.40;;;1.75;;
47778;SDS011;33538;48.432;11.350;2024-02-15T07:55:38;2.33;;;1.67;;
47778;SDS011;33538;48.432;11.350;2024-02-15T07:58:04;2.92;;;1.88;;
47778;SDS011;33538;48.432;11.350;2024-02-15T08:00:31;2.10;;;1.50;;
47778;SDS011;33538;48.432;11.350;2024-02-15T08:02:58;3.53;;;2.10;;
47778;SDS011;33538;48.432;11.350;2024-02-15T08:05:26;2.47;;;1.58;;
47778;SDS011;33538;48.432;11.350;2024-02-15T08:07:53;2.90;;;1.75;;
47778;SDS011;33538;48.432;11.350;2024-02-15T08:10:20;1.75;;;1.45;;
47778;SDS011;33538;48.432;11.350;2024-02-15T08:12:46;2.22;;;1.38;;
47778;SDS011;33538;48.432;11.350;2024-02-15T08:15:13;2.70;;;1.88;;
47778;SDS011;33538;48.432;11.350;2024-02-15T08:17:41;2.38;;;1.48;;
47778;SDS011;33538;48.432;11.350;2024-02-15T08:20:09;6.32;;;1.35;;
47778;SDS011;33538;48.432;11.350;2024-02-15T08:22:39;2.25;;;1.50;;
47778;SDS011;33538;48.432;11.350;2024-02-15T08:25:07;2.28;;;1.80;;
47778;SDS011;33538;48.432;11.350;2024-02-15T08:27:35;2.63;;;1.60;;
47778;SDS011;33538;48.432;11.350;2024-02-15T08:30:02;2.67;;;1.70;;
47778;SDS011;33538;48.432;11.350;2024-02-15T08:32:29;2.83;;;1.65;;
47778;SDS011;33538;48.432;11.350;2024-02-15T08:34:56;2.92;;;1.52;;
47778;SDS011;33538;48.432;11.350;2024-02-15T08:37:23;3.20;;;1.55;;
47778;SDS011;33538;48.432;11.350;2024-02-15T08:39:51;2.78;;;1.40;;
47778;SDS011;33538;48.432;11.350;2024-02-15T08:42:18;3.03;;;1.50;;
47778;SDS011;33538;48.432;11.350;2024-02-15T08:44:45;1.55;;;1.23;;
47778;SDS011;33538;48.432;11.350;2024-02-15T08:47:12;2.28;;;1.58;;
47778;SDS011;33538;48.432;11.350;2024-02-15T08:49:39;1.95;;;1.50;;
47778;SDS011;33538;48.432;11.350;2024-02-15T08:52:06;3.67;;;1.90;;
47778;SDS011;33538;48.432;11.350;2024-02-15T08:54:32;1.70;;;1.35;;
47778;SDS011;33538;48.432;11.350;2024-02-15T08:57:01;3.05;;;1.73;;
47778;SDS011;33538;48.432;11.350;2024-02-15T08:59:28;1.85;;;1.10;;
47778;SDS011;33538;48.432;11.350;2024-02-15T09:01:55;2.40;;;1.60;;
47778;SDS011;33538;48.432;11.350;2024-02-15T09:04:22;3.42;;;1.90;;
47778;SDS011;33538;48.432;11.350;2024-02-15T09:06:49;2.08;;;1.52;;
47778;SDS011;33538;48.432;11.350;2024-02-15T09:09:16;1.85;;;1.35;;
47778;SDS011;33538;48.432;11.350;2024-02-15T09:11:43;2.05;;;1.30;;
47778;SDS011;33538;48.432;11.350;2024-02-15T09:14:11;1.88;;;1.55;;
47778;SDS011;33538;48.432;11.350;2024-02-15T09:16:38;2.05;;;1.48;;
47778;SDS011;33538;48.432;11.350;2024-02-15T09:19:05;4.47;;;1.50;;
47778;SDS011;33538;48.432;11.350;2024-02-15T09:21:32;4.97;;;1.77;;
47778;SDS011;33538;48.432;11.350;2024-02-15T09:23:58;2.08;;;1.42;;
47778;SDS011;33538;48.432;11.350;2024-02-15T09:26:25;3.03;;;1.70;;
47778;SDS011;33538;48.432;11.350;2024-02-15T09:28:52;2.88;;;1.55;;
47778;SDS011;33538;48.432;11.350;2024-02-15T09:31:20;2.95;;;1.60;;
47778;SDS011;33538;48.432;11.350;2024-02-15T09:33:47;2.63;;;1.70;;
47778;SDS011;33538;48.432;11.350;2024-02-15T09:36:14;2.42;;;1.58;;
47778;SDS011;33538;48.432;11.350;2024-02-15T09:38:41;5.43;;;2.15;;
47778;SDS011;33538;48.432;11.350;2024-02-15T09:41:08;4.22;;;1.77;;
47778;SDS011;33538;48.432;11.350;2024-02-15T09:43:35;3.97;;;2.10;;
47778;SDS011;33538;48.432;11.350;2024-02-15T09:46:02;2.85;;;1.75;;
47778;SDS011;33538;48.432;11.350;2024-02-15T09:48:30;4.35;;;1.52;;
47778;SDS011;33538;48.432;11.350;2024-02-15T09:50:58;2.88;;;1.80;;
47778;SDS011;33538;48.432;11.350;2024-02-15T09:53:27;3.08;;;2.10;;
47778;SDS011;33538;48.432;11.350;2024-02-15T09:55:55;3.35;;;1.30;;
47778;SDS011;33538;48.432;11.350;2024-02-15T09:58:23;2.60;;;1.50;;
47778;SDS011;33538;48.432;11.350;2024-02-15T10:00:49;4.55;;;1.60;;
47778;SDS011;33538;48.432;11.350;2024-02-15T10:03:18;3.47;;;1.50;;
47778;SDS011;33538;48.432;11.350;2024-02-15T10:05:47;3.60;;;1.75;;
47778;SDS011;33538;48.432;11.350;2024-02-15T10:08:15;1.90;;;1.42;;
47778;SDS011;33538;48.432;11.350;2024-02-15T10:10:41;3.13;;;1.65;;
47778;SDS011;33538;48.432;11.350;2024-02-15T10:13:10;2.35;;;1.67;;
47778;SDS011;33538;48.432;11.350;2024-02-15T10:15:39;2.75;;;1.35;;
47778;SDS011;33538;48.432;11.350;2024-02-15T10:18:07;2.90;;;1.92;;
47778;SDS011;33538;48.432;11.350;2024-02-15T10:20:35;3.03;;;1.60;;
47778;SDS011;33538;48.432;11.350;2024-02-15T10:23:10;1.50;;;1.35;;
47778;SDS011;33538;48.432;11.350;2024-02-15T10:25:38;2.67;;;1.67;;
47778;SDS011;33538;48.432;11.350;2024-02-15T10:28:06;2.95;;;1.20;;
47778;SDS011;33538;48.432;11.350;2024-02-15T10:30:34;2.22;;;1.30;;
47778;SDS011;33538;48.432;11.350;2024-02-15T10:33:01;1.90;;;1.20;;
47778;SDS011;33538;48.432;11.350;2024-02-15T10:35:29;1.17;;;0.90;;
47778;SDS011;33538;48.432;11.350;2024-02-15T10:38:04;1.70;;;1.08;;
47778;SDS011;33538;48.432;11.350;2024-02-15T10:40:34;2.58;;;1.42;;
47778;SDS011;33538;48.432;11.350;2024-02-15T10:43:02;2.55;;;1.50;;
47778;SDS011;33538;48.432;11.350;2024-02-15T10:45:30;3.13;;;1.30;;
47778;SDS011;33538;48.432;11.350;2024-02-15T10:47:59;1.80;;;1.50;;
47778;SDS011;33538;48.432;11.350;2024-02-15T10:50:26;2.53;;;1.67;;
47778;SDS011;33538;48.432;11.350;2024-02-15T10:52:54;3.08;;;1.90;;
47778;SDS011;33538;48.432;11.350;2024-02-15T10:55:26;2.95;;;1.45;;
47778;SDS011;33538;48.432;11.350;2024-02-15T10:58:02;3.70;;;1.55;;
47778;SDS011;33538;48.432;11.350;2024-02-15T11:00:32;2.10;;;1.73;;
47778;SDS011;33538;48.432;11.350;2024-02-15T11:03:00;2.67;;;2.08;;
47778;SDS011;33538;48.432;11.350;2024-02-15T11:05:29;3.33;;;2.00;;
47778;SDS011;33538;48.432;11.350;2024-02-15T11:07:59;2.70;;;1.25;;
47778;SDS011;33538;48.432;11.350;2024-02-15T11:10:25;3.33;;;1.90;;
47778;SDS011;33538;48.432;11.350;2024-02-15T11:12:54;3.72;;;1.85;;
47778;SDS011;33538;48.432;11.350;2024-02-15T11:15:40;2.55;;;1.55;;
47778;SDS011;33538;48.432;11.350;2024-02-15T11:18:07;3.28;;;1.13;;
47778;SDS011;33538;48.432;11.350;2024-02-15T11:20:47;3.15;;;1.60;;
47778;SDS011;33538;48.432;11.350;2024-02-15T11:23:23;3.15;;;1.70;;
47778;SDS011;33538;48.432;11.350;2024-02-15T11:26:02;3.90;;;1.48;;
47778;SDS011;33538;48.432;11.350;2024-02-15T11:28:37;6.32;;;1.63;;
47778;SDS011;33538;48.432;11.350;2024-02-15T11:31:09;4.97;;;1.92;;
47778;SDS011;33538;48.432;11.350;2024-02-15T11:33:36;2.47;;;1.48;;
47778;SDS011;33538;48.432;11.350;2024-02-15T11:36:04;2.20;;;1.00;;
47778;SDS011;33538;48.432;11.350;2024-02-15T11:38:32;2.75;;;1.58;;
47778;SDS011;33538;48.432;11.350;2024-02-15T11:40:59;2.72;;;1.30;;
47778;SDS011;33538;48.432;11.350;2024-02-15T11:43:51;1.45;;;1.17;;
47778;SDS011;33538;48.432;11.350;2024-02-15T11:46:19;2.33;;;1.30;;
47778;SDS011;33538;48.432;11.350;2024-02-15T11:48:46;5.53;;;1.20;;
47778;SDS011;33538;48.432;11.350;2024-02-15T11:51:24;2.00;;;1.05;;
47778;SDS011;33538;48.432;11.350;2024-02-15T11:53:58;1.65;;;1.10;;
47778;SDS011;33538;48.432;11.350;2024-02-15T11:56:29;1.25;;;1.05;;
47778;SDS011;33538;48.432;11.350;2024-02-15T11:59:04;4.50;;;1.40;;
47778;SDS011;33538;48.432;11.350;2024-02-15T12:01:31;1.38;;;0.88;;
47778;SDS011;33538;48.432;11.350;2024-02-15T12:03:58;0.88;;;0.80;;
47778;SDS011;33538;48.432;11.350;2024-02-15T12:06:32;0.90;;;0.90;;
47778;SDS011;33538;48.432;11.350;2024-02-15T12:08:59;3.58;;;1.38;;
47778;SDS011;33538;48.432;11.350;2024-02-15T12:11:26;1.60;;;1.02;;
47778;SDS011;33538;48.432;11.350;2024-02-15T12:13:53;1.63;;;1.15;;
47778;SDS011;33538;48.432;11.350;2024-02-15T12:16:21;2.35;;;1.08;;
47778;SDS011;33538;48.432;11.350;2024-02-15T12:18:48;3.42;;;1.27;;
47778;SDS011;33538;48.432;11.350;2024-02-15T12:21:16;1.40;;;0.85;;
47778;SDS011;33538;48.432;11.350;2024-02-15T12:23:45;1.38;;;1.05;;
47778;SDS011;33538;48.432;11.350;2024-02-15T12:26:12;1.42;;;1.00;;
47778;SDS011;33538;48.432;11.350;2024-02-15T12:28:39;2.83;;;1.20;;
47778;SDS011;33538;48.432;11.350;2024-02-15T12:31:11;1.13;;;0.88;;
47778;SDS011;33538;48.432;11.350;2024-02-15T12:33:39;3.60;;;0.93;;
47778;SDS011;33538;48.432;11.350;2024-02-15T12:36:06;1.70;;;1.10;;
47778;SDS011;33538;48.432;11.350;2024-02-15T12:38:34;1.20;;;1.10;;
47778;SDS011;33538;48.432;11.350;2024-02-15T12:41:02;3.33;;;1.50;;
47778;SDS011;33538;48.432;11.350;2024-02-15T12:43:29;1.77;;;0.98;;
47778;SDS011;33538;48.432;11.350;2024-02-15T12:45:56;1.42;;;0.90;;
47778;SDS011;33538;48.432;11.350;2024-02-15T12:48:22;2.17;;;1.13;;
47778;SDS011;33538;48.432;11.350;2024-02-15T12:50:51;0.98;;;0.77;;
47778;SDS011;33538;48.432;11.350;2024-02-15T12:53:21;1.20;;;0.80;;
47778;SDS011;33538;48.432;11.350;2024-02-15T12:55:52;1.40;;;0.95;;
47778;SDS011;33538;48.432;11.350;2024-02-15T12:58:19;1.77;;;1.20;;
47778;SDS011;33538;48.432;11.350;2024-02-15T13:00:46;1.75;;;1.08;;
47778;SDS011;33538;48.432;11.350;2024-02-15T13:03:13;1.65;;;0.70;;
47778;SDS011;33538;48.432;11.350;2024-02-15T13:05:40;0.90;;;0.77;;
47778;SDS011;33538;48.432;11.350;2024-02-15T13:08:09;3.05;;;1.00;;
47778;SDS011;33538;48.432;11.350;2024-02-15T13:10:36;2.25;;;1.40;;
47778;SDS011;33538;48.432;11.350;2024-02-15T13:13:03;2.92;;;1.50;;
47778;SDS011;33538;48.432;11.350;2024-02-15T13:15:30;2.55;;;1.45;;
47778;SDS011;33538;48.432;11.350;2024-02-15T13:17:56;1.13;;;0.88;;
47778;SDS011;33538;48.432;11.350;2024-02-15T13:20:23;1.77;;;1.40;;
47778;SDS011;33538;48.432;11.350;2024-02-15T13:22:50;0.90;;;0.70;;
47778;SDS011;33538;48.432;11.350;2024-02-15T13:25:18;1.45;;;1.08;;
47778;SDS011;33538;48.432;11.350;2024-02-15T13:27:45;1.98;;;1.20;;
47778;SDS011;33538;48.432;11.350;2024-02-15T13:30:12;1.20;;;1.08;;
47778;SDS011;33538;48.432;11.350;2024-02-15T13:32:40;1.17;;;1.00;;
47778;SDS011;33538;48.432;11.350;2024-02-15T13:35:07;1.13;;;0.90;;
47778;SDS011;33538;48.432;11.350;2024-02-15T13:37:35;3.38;;;0.90;;
47778;SDS011;33538;48.432;11.350;2024-02-15T13:40:01;1.58;;;0.68;;
47778;SDS011;33538;48.432;11.350;2024-02-15T13:42:30;1.23;;;1.00;;
47778;SDS011;33538;48.432;11.350;2024-02-15T13:44:56;1.92;;;1.20;;
47778;SDS011;33538;48.432;11.350;2024-02-15T13:47:23;2.72;;;1.02;;
47778;SDS011;33538;48.432;11.350;2024-02-15T13:49:50;2.67;;;1.48;;
47778;SDS011;33538;48.432;11.350;2024-02-15T13:52:17;1.30;;;0.90;;
47778;SDS011;33538;48.432;11.350;2024-02-15T13:54:44;2.53;;;0.75;;
47778;SDS011;33538;48.432;11.350;2024-02-15T13:57:11;1.63;;;0.80;;
47778;SDS011;33538;48.432;11.350;2024-02-15T13:59:39;1.90;;;1.02;;
47778;SDS011;33538;48.432;11.350;2024-02-15T14:02:06;0.95;;;0.70;;
47778;SDS011;33538;48.432;11.350;2024-02-15T14:04:32;2.42;;;0.93;;
47778;SDS011;33538;48.432;11.350;2024-02-15T14:06:59;1.40;;;0.77;;
47778;SDS011;33538;48.432;11.350;2024-02-15T14:09:27;3.95;;;1.08;;
47778;SDS011;33538;48.432;11.350;2024-02-15T14:11:53;3.33;;;1.35;;
47778;SDS011;33538;48.432;11.350;2024-02-15T14:14:20;2.63;;;0.77;;
47778;SDS011;33538;48.432;11.350;2024-02-15T14:16:48;2.45;;;1.30;;
47778;SDS011;33538;48.432;11.350;2024-02-15T14:19:15;2.92;;;0.82;;
47778;SDS011;33538;48.432;11.350;2024-02-15T14:21:42;3.28;;;1.20;;
47778;SDS011;33538;48.432;11.350;2024-02-15T14:24:09;2.17;;;0.68;;
47778;SDS011;33538;48.432;11.350;2024-02-15T14:26:36;1.92;;;1.20;;
47778;SDS011;33538;48.432;11.350;2024-02-15T14:29:03;1.83;;;1.00;;
47778;SDS011;33538;48.432;11.350;2024-02-15T14:31:29;1.92;;;1.10;;
47778;SDS011;33538;48.432;11.350;2024-02-15T14:33:57;3.35;;;1.27;;
47778;SDS011;33538;48.432;11.350;2024-02-15T14:36:24;2.00;;;0.98;;
47778;SDS011;33538;48.432;11.350;2024-02-15T14:38:51;1.92;;;1.30;;